Time;durP1;ratioP1;P1;durP2;ratioP2;P2;SDS_P1;SDS_P2;PMS_P1;PMS_P2;Temp;Humidity;BMP_temperature;BMP_pressure;BME280_temperature;BME280_humidity;BME280_pressure;Samples;Min_cycle;Max_cycle;Signal;HPM_P1;HPM_P2
2022/05/18 00:00:14;;;;;;;;;;;;;;;21.12;52.85;100209.00;4399460;32;20327;-84
2022/05/18 00:02:41;;;;;;;;;;;;;;;21.10;53.17;100202.91;4397906;32;20003;-84
2022/05/18 00:05:08;;;;;;;;;;;;;;;21.17;52.44;100215.03;4397891;32;20077;-83
2022/05/18 00:07:35;;;;;;;;;;;;;;;21.14;52.60;100215.09;4398939;32;20372;-83
2022/05/18 00:10:03;;;;;;;;;;;;;;;21.06;53.31;100217.06;4399506;32;19983;-84
2022/05/18 00:12:29;;;;;;;;;;;;;;;21.11;53.04;100220.44;4397679;32;20041;-84
2022/05/18 00:14:56;;;;;;;;;;;;;;;21.05;52.64;100215.31;4383762;32;20403;-84
2022/05/18 00:17:23;;;;;;;;;;;;;;;20.96;53.45;100226.87;4384330;32;20323;-85
2022/05/18 00:19:50;;;;;;;;;;;;;;;20.90;53.33;100227.91;4396567;32;20028;-84
2022/05/18 00:22:17;;;;;;;;;;;;;;;20.89;52.63;100223.50;4399007;32;20050;-84
2022/05/18 00:24:44;;;;;;;;;;;;;;;20.84;52.99;100222.75;4399220;32;20001;-84
2022/05/18 00:27:11;;;;;;;;;;;;;;;20.80;52.95;100221.06;4399109;32;20483;-84
2022/05/18 00:29:38;;;;;;;;;;;;;;;20.93;52.54;100226.06;4399170;32;20046;-84
2022/05/18 00:32:05;;;;;;;;;;;;;;;20.12;54.38;100228.41;4399016;32;20006;-83
2022/05/18 00:34:32;;;;;;;;;;;;;;;20.72;51.49;100222.97;4399074;32;20006;-85
2022/05/18 00:37:00;;;;;;;;;;;;;;;20.73;51.62;100229.97;4399187;32;20037;-84
2022/05/18 00:39:27;;;;;;;;;;;;;;;20.63;51.50;100223.16;4397990;32;21590;-84
2022/05/18 00:41:54;;;;;;;;;;;;;;;20.81;48.62;100228.06;4398735;32;20343;-84
2022/05/18 00:44:21;;;;;;;;;;;;;;;20.78;48.52;100230.75;4398313;32;20381;-84
2022/05/18 00:46:51;;;;;;;;;;;;;;;20.79;47.26;100235.12;4399388;32;20041;-84
2022/05/18 00:49:38;;;;;;;;;;;;;;;20.76;46.65;100235.19;4398616;32;19991;-83
2022/05/18 00:52:06;;;;;;;;;;;;;;;20.78;47.64;100237.78;4397912;32;20815;-83
2022/05/18 00:54:33;;;;;;;;;;;;;;;20.92;47.61;100238.38;4397620;32;20057;-83
2022/05/18 00:57:05;;;;;;;;;;;;;;;20.73;46.26;100240.50;4397330;32;20339;-83
2022/05/18 00:59:53;;;;;;;;;;;;;;;20.93;44.83;100244.50;4398037;32;20020;-83
2022/05/18 01:02:19;;;;;;;;;;;;;;;20.84;44.60;100238.53;4396793;32;20000;-83
2022/05/18 01:04:53;;;;;;;;;;;;;;;20.72;45.36;100244.03;4269881;32;10003865;-84
2022/05/18 01:07:21;;;;;;;;;;;;;;;20.78;44.55;100249.19;4383718;32;20005;-83
2022/05/18 01:09:48;;;;;;;;;;;;;;;20.73;44.77;100261.53;4383219;32;20336;-83
2022/05/18 01:12:16;;;;;;;;;;;;;;;20.79;44.88;100255.31;4383953;32;20020;-84
2022/05/18 01:15:08;;;;;;;;;;;;;;;20.86;43.34;100257.78;4382244;32;20034;-84
2022/05/18 01:17:36;;;;;;;;;;;;;;;20.89;43.40;100257.72;4381182;32;19997;-84
2022/05/18 01:20:04;;;;;;;;;;;;;;;20.92;43.49;100261.19;4383745;32;19990;-83
2022/05/18 01:22:31;;;;;;;;;;;;;;;21.01;42.76;100263.66;4384444;32;20058;-83
2022/05/18 01:25:01;;;;;;;;;;;;;;;20.84;43.33;100270.13;4385745;32;20395;-83
2022/05/18 01:27:27;;;;;;;;;;;;;;;20.62;44.68;100269.66;4383939;32;20018;-84
2022/05/18 01:29:55;;;;;;;;;;;;;;;20.47;45.88;100269.88;4383703;32;20032;-83
2022/05/18 01:32:22;;;;;;;;;;;;;;;20.67;44.73;100273.03;4385714;32;19991;-84
2022/05/18 01:34:51;;;;;;;;;;;;;;;20.73;45.52;100272.06;4385681;32;19993;-83
2022/05/18 01:37:18;;;;;;;;;;;;;;;20.63;46.22;100275.78;4385635;32;20482;-84
2022/05/18 01:39:52;;;;;;;;;;;;;;;20.67;45.08;100269.53;4384109;32;19975;-84
2022/05/18 01:42:19;;;;;;;;;;;;;;;20.24;45.91;100275.53;4385109;32;20005;-84
2022/05/18 01:44:46;;;;;;;;;;;;;;;20.55;45.99;100277.66;4385573;32;19990;-84
2022/05/18 01:47:13;;;;;;;;;;;;;;;20.61;45.59;100277.53;4385255;32;20021;-84
2022/05/18 01:49:40;;;;;;;;;;;;;;;20.48;44.58;100282.13;4385553;32;19999;-84
2022/05/18 01:52:10;;;;;;;;;;;;;;;20.67;44.79;100285.34;4383600;32;19974;-84
2022/05/18 01:54:41;;;;;;;;;;;;;;;20.50;44.53;100284.75;4385448;32;20009;-84
2022/05/18 01:57:08;;;;;;;;;;;;;;;20.58;43.80;100288.13;4385603;32;20261;-85
2022/05/18 01:59:35;;;;;;;;;;;;;;;20.77;44.40;100286.03;4385908;32;20410;-86
2022/05/18 02:02:03;;;;;;;;;;;;;;;20.44;46.25;100290.97;4385211;32;20039;-84
2022/05/18 02:04:33;;;;;;;;;;;;;;;20.44;46.99;100297.09;4383504;32;19988;-84
2022/05/18 02:07:00;;;;;;;;;;;;;;;20.47;46.62;100304.06;4384261;32;19998;-84
2022/05/18 02:09:28;;;;;;;;;;;;;;;20.40;47.07;100300.69;4385298;32;20300;-85
2022/05/18 02:11:55;;;;;;;;;;;;;;;20.48;47.49;100312.81;4380714;32;19982;-85
2022/05/18 02:14:22;;;;;;;;;;;;;;;20.43;47.58;100316.41;4384723;32;20006;-84
2022/05/18 02:16:49;;;;;;;;;;;;;;;20.28;48.20;100321.03;4383817;32;20013;-85
2022/05/18 02:19:16;;;;;;;;;;;;;;;20.07;49.15;100322.22;4382859;32;19994;-85
2022/05/18 02:21:43;;;;;;;;;;;;;;;20.09;48.31;100320.47;4384545;32;19996;-87
2022/05/18 02:24:10;;;;;;;;;;;;;;;19.98;48.83;100328.53;4385042;32;19998;-87
2022/05/18 02:26:38;;;;;;;;;;;;;;;19.79;49.55;100333.16;4385408;32;20933;-85
2022/05/18 02:29:05;;;;;;;;;;;;;;;19.64;49.61;100338.63;4385283;32;20005;-85
2022/05/18 02:31:32;;;;;;;;;;;;;;;19.73;49.28;100338.50;4383745;32;20057;-84
2022/05/18 02:33:59;;;;;;;;;;;;;;;19.48;50.14;100344.03;4385480;32;19978;-83
2022/05/18 02:36:26;;;;;;;;;;;;;;;19.51;50.06;100351.88;4385279;32;20018;-84
2022/05/18 02:38:53;;;;;;;;;;;;;;;19.19;51.20;100356.63;4384793;32;20017;-84
2022/05/18 02:41:20;;;;;;;;;;;;;;;19.28;51.43;100351.28;4385279;32;20001;-83
2022/05/18 02:43:47;;;;;;;;;;;;;;;19.43;51.54;100356.34;4381156;32;20001;-83
2022/05/18 02:46:15;;;;;;;;;;;;;;;19.47;51.47;100352.78;4385525;32;19990;-83
2022/05/18 02:48:43;;;;;;;;;;;;;;;18.97;53.23;100362.09;4384908;32;20746;-83
2022/05/18 02:51:10;;;;;;;;;;;;;;;19.37;52.32;100360.78;4385525;32;20013;-83
2022/05/18 02:53:37;;;;;;;;;;;;;;;19.33;52.33;100369.59;4390323;32;19979;-84
2022/05/18 02:56:07;;;;;;;;;;;;;;;19.39;52.34;100370.38;4400262;32;20371;-83
2022/05/18 02:58:50;;;;;;;;;;;;;;;19.18;53.07;100378.50;4398486;32;20360;-83
2022/05/18 03:01:21;;;;;;;;;;;;;;;19.20;53.07;100368.84;4389980;32;20354;-83
2022/05/18 03:03:49;;;;;;;;;;;;;;;19.11;52.94;100374.19;4385413;32;19983;-83
2022/05/18 03:06:17;;;;;;;;;;;;;;;19.11;53.22;100380.31;4385101;32;20021;-83
2022/05/18 03:08:44;;;;;;;;;;;;;;;19.04;53.40;100383.88;4386288;32;19986;-83
2022/05/18 03:11:11;;;;;;;;;;;;;;;18.91;53.32;100377.88;4404119;32;20000;-83
2022/05/18 03:13:38;;;;;;;;;;;;;;;18.88;52.88;100384.91;4399751;32;19978;-84
2022/05/18 03:16:05;;;;;;;;;;;;;;;18.86;52.79;100390.19;4400651;32;19985;-84
2022/05/18 03:18:32;;;;;;;;;;;;;;;18.94;52.40;100397.97;4398040;32;20105;-83
2022/05/18 03:23:45;;;;;;;;;;;;;;;18.84;52.19;100407.69;4399317;32;19994;-84
2022/05/18 03:26:13;;;;;;;;;;;;;;;18.71;52.46;100406.87;4400007;32;20006;-84
2022/05/18 03:28:42;;;;;;;;;;;;;;;18.74;52.21;100411.28;4398993;32;20692;-84
2022/05/18 03:31:09;;;;;;;;;;;;;;;18.75;52.36;100423.50;4400576;32;20012;-84
2022/05/18 03:33:37;;;;;;;;;;;;;;;18.79;52.28;100430.44;4399902;32;19978;-83
2022/05/18 03:36:04;;;;;;;;;;;;;;;18.83;52.09;100424.31;4400073;32;20102;-84
2022/05/18 03:38:31;;;;;;;;;;;;;;;18.86;51.68;100442.66;4400401;32;20000;-84
2022/05/18 03:41:01;;;;;;;;;;;;;;;18.68;51.93;100432.28;4399145;32;19978;-84
2022/05/18 03:43:29;;;;;;;;;;;;;;;18.72;51.64;100442.75;4399900;32;20026;-83
2022/05/18 03:45:56;;;;;;;;;;;;;;;18.65;51.58;100453.28;4400002;32;19986;-83
2022/05/18 03:48:23;;;;;;;;;;;;;;;18.73;51.43;100456.72;4399399;32;20324;-83
2022/05/18 03:50:50;;;;;;;;;;;;;;;18.08;53.29;100462.31;4399424;32;19982;-83
2022/05/18 03:53:17;;;;;;;;;;;;;;;18.46;52.73;100463.00;4399598;32;19986;-83
2022/05/18 03:55:44;;;;;;;;;;;;;;;18.18;53.76;100462.28;4400339;32;20024;-83
2022/05/18 03:58:12;;;;;;;;;;;;;;;18.39;53.10;100477.91;4399570;32;19989;-82
2022/05/18 04:00:40;;;;;;;;;;;;;;;18.48;53.02;100477.00;4374074;32;20020;-83
2022/05/18 04:03:08;;;;;;;;;;;;;;;18.65;52.47;100479.50;4373930;32;20313;-83
2022/05/18 04:05:52;;;;;;;;;;;;;;;18.64;52.90;100483.88;4369579;32;20005;-85
2022/05/18 04:08:19;;;;;;;;;;;;;;;18.65;53.39;100480.38;4355646;32;20002;-84
2022/05/18 04:10:46;;;;;;;;;;;;;;;18.58;53.47;100478.66;4362280;32;20332;-84
2022/05/18 04:13:14;;;;;;;;;;;;;;;18.58;53.74;100495.25;4354725;32;20027;-83
2022/05/18 04:15:41;;;;;;;;;;;;;;;18.69;53.54;100494.31;4362102;32;19990;-83
2022/05/18 04:18:08;;;;;;;;;;;;;;;18.76;53.12;100498.66;4383416;32;20029;-81
2022/05/18 04:20:35;;;;;;;;;;;;;;;18.86;53.02;100500.38;4384320;32;20000;-84
2022/05/18 04:23:03;;;;;;;;;;;;;;;18.94;52.65;100509.03;4382838;32;20036;-84
2022/05/18 04:25:30;;;;;;;;;;;;;;;18.93;52.57;100502.06;4383438;32;20016;-84
2022/05/18 04:27:56;;;;;;;;;;;;;;;18.99;52.84;100512.50;4384554;32;20107;-84
2022/05/18 04:30:25;;;;;;;;;;;;;;;19.01;52.85;100515.97;4384222;32;20033;-83
2022/05/18 04:32:52;;;;;;;;;;;;;;;19.02;51.83;100528.22;4383692;32;20053;-83
2022/05/18 04:35:20;;;;;;;;;;;;;;;19.14;52.39;100526.38;4385583;32;19997;-83
2022/05/18 04:37:48;;;;;;;;;;;;;;;19.16;51.30;100537.75;4359488;32;805673;-82
2022/05/18 04:40:15;;;;;;;;;;;;;;;19.28;50.76;100541.16;4383615;32;20016;-79
2022/05/18 04:42:42;;;;;;;;;;;;;;;19.37;50.81;100545.47;4384141;32;20351;-79
2022/05/18 04:45:10;;;;;;;;;;;;;;;19.12;52.08;100546.53;4384157;32;20033;-79
2022/05/18 04:47:37;;;;;;;;;;;;;;;19.02;52.32;100546.59;4384281;32;20399;-79
2022/05/18 04:50:04;;;;;;;;;;;;;;;18.99;52.42;100548.38;4384139;32;19986;-79
2022/05/18 04:52:31;;;;;;;;;;;;;;;19.13;52.28;100545.66;4395360;32;19970;-79
2022/05/18 04:54:58;;;;;;;;;;;;;;;19.12;52.82;100546.53;4362173;32;20759;-80
2022/05/18 04:57:25;;;;;;;;;;;;;;;19.21;52.10;100559.59;4370531;32;20007;-79
2022/05/18 04:59:52;;;;;;;;;;;;;;;19.18;51.46;100560.47;4369427;32;20408;-79
2022/05/18 05:02:19;;;;;;;;;;;;;;;19.26;51.96;100569.16;4368692;32;19995;-77
2022/05/18 05:04:46;;;;;;;;;;;;;;;19.30;52.40;100575.25;4370912;32;20478;-77
2022/05/18 05:07:13;;;;;;;;;;;;;;;19.31;52.28;100576.13;4370306;32;20008;-77
2022/05/18 05:09:40;;;;;;;;;;;;;;;19.36;51.52;100577.81;4369879;32;20004;-77
2022/05/18 05:12:07;;;;;;;;;;;;;;;19.31;49.72;100595.38;4370976;32;19989;-78
2022/05/18 05:14:40;;;;;;;;;;;;;;;19.42;48.82;100590.91;4371076;32;20029;-77
2022/05/18 05:17:07;;;;;;;;;;;;;;;19.50;50.18;100591.72;4375061;32;20002;-77
2022/05/18 05:19:37;;;;;;;;;;;;;;;19.63;50.85;100599.50;4370043;32;19983;-78
2022/05/18 05:22:04;;;;;;;;;;;;;;;19.48;51.05;100603.97;4370825;32;20031;-78
2022/05/18 05:24:31;;;;;;;;;;;;;;;19.45;49.39;100601.38;4370407;32;20026;-78
2022/05/18 05:26:58;;;;;;;;;;;;;;;19.61;47.67;100609.13;4370880;32;19987;-77
2022/05/18 05:29:25;;;;;;;;;;;;;;;19.62;47.29;100618.75;4370286;32;20050;-78
2022/05/18 05:31:52;;;;;;;;;;;;;;;19.55;46.05;100619.69;4374315;32;19974;-77
2022/05/18 05:34:19;;;;;;;;;;;;;;;19.64;45.38;100617.03;4370870;32;20001;-77
2022/05/18 05:36:46;;;;;;;;;;;;;;;19.80;43.34;100629.12;4371025;32;20065;-78
2022/05/18 05:39:13;;;;;;;;;;;;;;;19.52;43.22;100638.97;4385503;32;19990;-78
2022/05/18 05:41:42;;;;;;;;;;;;;;;19.57;41.71;100641.56;4384406;32;19988;-78
2022/05/18 05:44:10;;;;;;;;;;;;;;;19.70;40.29;100651.13;4384639;32;20391;-78
2022/05/18 05:46:37;;;;;;;;;;;;;;;19.68;40.84;100655.50;4384761;32;19986;-78
2022/05/18 05:49:04;;;;;;;;;;;;;;;19.60;41.43;100662.56;4382709;32;63051;-77
2022/05/18 05:51:31;;;;;;;;;;;;;;;19.59;41.04;100666.03;4383044;32;20509;-77
2022/05/18 05:53:58;;;;;;;;;;;;;;;19.43;42.18;100666.19;4379173;32;20040;-77
2022/05/18 05:56:25;;;;;;;;;;;;;;;19.41;42.47;100681.06;4372817;32;20044;-78
2022/05/18 05:58:52;;;;;;;;;;;;;;;19.52;42.28;100681.84;4385472;32;20352;-78
2022/05/18 06:01:19;;;;;;;;;;;;;;;19.67;43.55;100690.56;4384957;32;19986;-78
2022/05/18 06:03:46;;;;;;;;;;;;;;;19.66;42.73;100691.44;4383848;32;20407;-79
2022/05/18 06:06:13;;;;;;;;;;;;;;;19.91;42.01;100695.63;4382679;32;19998;-78
2022/05/18 06:08:40;;;;;;;;;;;;;;;20.14;40.51;100699.78;4384816;32;19982;-78
2022/05/18 06:11:08;;;;;;;;;;;;;;;20.19;40.23;100708.50;4384790;32;19978;-77
2022/05/18 06:13:34;;;;;;;;;;;;;;;20.25;40.19;100708.44;4384881;32;20006;-77
2022/05/18 06:16:02;;;;;;;;;;;;;;;20.38;39.37;100710.03;4383563;32;19994;-77
2022/05/18 06:18:30;;;;;;;;;;;;;;;20.40;39.10;100720.56;4382914;32;20001;-78
2022/05/18 06:20:57;;;;;;;;;;;;;;;20.63;39.12;100715.09;4384180;32;19998;-77
2022/05/18 06:23:25;;;;;;;;;;;;;;;20.59;38.64;100726.53;4384642;32;20406;-78
2022/05/18 06:25:52;;;;;;;;;;;;;;;21.01;38.06;100729.56;4384703;32;19986;-78
2022/05/18 06:28:19;;;;;;;;;;;;;;;21.03;37.79;100733.06;4383120;32;20053;-78
2022/05/18 06:30:46;;;;;;;;;;;;;;;21.40;37.04;100722.03;4386241;32;20002;-78
2022/05/18 06:33:13;;;;;;;;;;;;;;;21.78;36.85;100734.66;4384880;32;20041;-78
2022/05/18 06:35:40;;;;;;;;;;;;;;;22.02;35.96;100738.66;4375892;32;20004;-77
2022/05/18 06:38:11;;;;;;;;;;;;;;;22.33;34.14;100739.00;4384138;32;20429;-78
2022/05/18 06:43:24;;;;;;;;;;;;;;;22.75;33.92;100753.19;4383981;32;20041;-78
2022/05/18 06:45:51;;;;;;;;;;;;;;;23.06;33.13;100757.88;4384549;32;19994;-78
2022/05/18 06:48:18;;;;;;;;;;;;;;;23.15;33.43;100764.75;4384846;32;20000;-79
2022/05/18 06:51:06;;;;;;;;;;;;;;;23.50;31.85;100771.91;4384727;32;19979;-79
2022/05/18 06:53:33;;;;;;;;;;;;;;;23.52;31.54;100772.75;4370032;32;20055;-78
2022/05/18 06:56:00;;;;;;;;;;;;;;;23.39;32.18;100776.59;4383496;32;20006;-78
2022/05/18 06:58:31;;;;;;;;;;;;;;;23.15;31.97;100776.19;4385050;32;20062;-79
2022/05/18 07:01:01;;;;;;;;;;;;;;;23.58;31.82;100777.91;4393829;32;19979;-79
2022/05/18 07:03:29;;;;;;;;;;;;;;;23.82;31.07;100780.91;4381482;32;20038;-79
2022/05/18 07:05:56;;;;;;;;;;;;;;;23.87;30.89;100784.34;4384574;32;19986;-79
2022/05/18 07:08:23;;;;;;;;;;;;;;;24.01;31.17;100787.50;4382845;32;20032;-78
2022/05/18 07:10:50;;;;;;;;;;;;;;;24.20;31.58;100797.66;4384173;32;20030;-79
2022/05/18 07:13:18;;;;;;;;;;;;;;;24.63;31.70;100807.16;4384870;32;20025;-78
2022/05/18 07:15:45;;;;;;;;;;;;;;;24.64;29.60;100803.59;4384595;32;20004;-79
2022/05/18 07:18:13;;;;;;;;;;;;;;;24.98;30.42;100814.13;4384464;32;19991;-80
2022/05/18 07:20:40;;;;;;;;;;;;;;;24.91;30.22;100812.56;4384597;32;19974;-79
2022/05/18 07:23:07;;;;;;;;;;;;;;;25.15;28.63;100811.06;4383381;32;20093;-80
2022/05/18 07:25:34;;;;;;;;;;;;;;;25.09;28.34;100812.06;4370805;32;20054;-80
2022/05/18 07:28:20;;;;;;;;;;;;;;;24.88;30.43;100817.94;4381559;32;19982;-79
2022/05/18 07:30:48;;;;;;;;;;;;;;;25.07;28.58;100816.53;4384483;32;19970;-80
2022/05/18 07:33:16;;;;;;;;;;;;;;;25.11;28.99;100819.94;4379389;32;20028;-79
2022/05/18 07:35:44;;;;;;;;;;;;;;;25.01;28.25;100825.50;4395607;32;20033;-80
2022/05/18 07:38:11;;;;;;;;;;;;;;;25.02;29.00;100827.25;4393610;32;19983;-79
2022/05/18 07:40:59;;;;;;;;;;;;;;;25.25;29.82;100820.47;4386862;32;19970;-80
2022/05/18 07:43:26;;;;;;;;;;;;;;;24.77;29.84;100827.06;4380968;32;19998;-80
2022/05/18 07:45:53;;;;;;;;;;;;;;;24.63;29.30;100828.31;4377936;32;20013;-80
2022/05/18 07:48:20;;;;;;;;;;;;;;;25.31;28.62;100828.25;4392999;32;19995;-80
2022/05/18 07:50:48;;;;;;;;;;;;;;;25.46;26.87;100833.13;4379230;32;20010;-80
2022/05/18 07:53:14;;;;;;;;;;;;;;;25.25;27.58;100849.63;4375416;32;19983;-79
2022/05/18 07:55:41;;;;;;;;;;;;;;;25.36;26.55;100831.62;4369851;32;20329;-79
2022/05/18 07:58:09;;;;;;;;;;;;;;;25.15;25.91;100845.50;4368735;32;20738;-79
2022/05/18 08:00:36;;;;;;;;;;;;;;;25.29;26.89;100833.59;4377514;32;19978;-79
2022/05/18 08:03:04;;;;;;;;;;;;;;;25.71;27.22;100848.25;4384580;32;19990;-78
2022/05/18 08:05:31;;;;;;;;;;;;;;;26.18;26.71;100848.59;4386636;32;20368;-79
2022/05/18 08:07:58;;;;;;;;;;;;;;;25.73;26.61;100851.75;4384511;32;19987;-79
2022/05/18 08:15:56;;;;;;;;;;;;;;;25.41;26.52;100856.22;4383819;32;19999;-78
2022/05/18 08:18:23;;;;;;;;;;;;;;;25.53;26.15;100857.66;4383430;32;20331;-79
2022/05/18 08:20:51;;;;;;;;;;;;;;;25.52;26.21;100870.03;4384464;32;20466;-79
2022/05/18 08:23:19;;;;;;;;;;;;;;;25.34;30.40;100881.19;4378003;32;20488;-78
2022/05/18 08:25:47;;;;;;;;;;;;;;;25.27;29.40;100884.87;4383049;32;20038;-81
2022/05/18 08:28:14;;;;;;;;;;;;;;;24.85;27.47;100885.13;4384116;32;19997;-83
2022/05/18 08:30:42;;;;;;;;;;;;;;;24.75;27.85;100891.56;4386101;32;19982;-81
2022/05/18 08:33:09;;;;;;;;;;;;;;;25.14;29.14;100884.37;4385033;32;20065;-81
2022/05/18 08:35:36;;;;;;;;;;;;;;;24.79;29.18;100887.91;4386429;32;19990;-80
2022/05/18 08:38:03;;;;;;;;;;;;;;;25.26;28.52;100888.47;4384574;32;20008;-81
2022/05/18 08:41:07;;;;;;;;;;;;;;;25.08;28.10;100894.22;4385069;32;20046;-82
2022/05/18 08:43:35;;;;;;;;;;;;;;;25.05;28.22;100896.06;4353904;32;20741;-82
2022/05/18 08:46:04;;;;;;;;;;;;;;;25.17;29.12;100899.31;4380416;32;20013;-82
2022/05/18 08:48:34;;;;;;;;;;;;;;;25.23;28.36;100899.16;4383844;32;19995;-82
2022/05/18 08:51:03;;;;;;;;;;;;;;;25.04;29.22;100894.31;4386370;32;20478;-82
2022/05/18 08:54:01;;;;;;;;;;;;;;;24.79;28.88;100902.06;4386203;32;19993;-82
2022/05/18 08:56:41;;;;;;;;;;;;;;;24.99;29.51;100908.63;4389846;32;20025;-82
2022/05/18 08:59:17;;;;;;;;;;;;;;;24.96;29.29;100900.75;4384664;32;20127;-80
2022/05/18 09:01:46;;;;;;;;;;;;;;;24.84;27.87;100901.91;4386035;32;19979;-82
2022/05/18 09:04:18;;;;;;;;;;;;;;;25.10;27.73;100908.31;4384420;32;20351;-82
2022/05/18 09:06:47;;;;;;;;;;;;;;;25.21;27.95;100908.94;4384412;32;19986;-81
2022/05/18 09:12:01;;;;;;;;;;;;;;;25.08;27.94;100904.81;4394854;32;19974;-81
2022/05/18 09:14:30;;;;;;;;;;;;;;;25.54;26.87;100908.91;4375897;32;20090;-82
2022/05/18 09:17:03;;;;;;;;;;;;;;;25.23;26.32;100909.75;4384810;32;20058;-81
2022/05/18 09:19:49;;;;;;;;;;;;;;;25.28;26.28;100918.47;4384180;32;20001;-82
2022/05/18 09:22:27;;;;;;;;;;;;;;;25.46;27.80;100920.59;4372280;32;20062;-81
2022/05/18 09:25:03;;;;;;;;;;;;;;;25.51;24.83;100916.00;4385676;32;20005;-81
2022/05/18 09:27:36;;;;;;;;;;;;;;;24.90;24.53;100912.38;4384250;32;19998;-81
2022/05/18 09:30:14;;;;;;;;;;;;;;;24.55;29.06;100922.06;4385119;32;20000;-81
2022/05/18 09:32:44;;;;;;;;;;;;;;;25.02;22.69;100912.03;4388106;32;19993;-81
2022/05/18 09:35:14;;;;;;;;;;;;;;;25.10;24.41;100918.91;4379872;32;20793;-82
2022/05/18 09:37:42;;;;;;;;;;;;;;;25.22;24.06;100929.22;4393078;32;20025;-81
2022/05/18 09:40:12;;;;;;;;;;;;;;;24.75;26.31;100928.63;4385003;32;20488;-81
2022/05/18 09:42:43;;;;;;;;;;;;;;;25.04;24.93;100925.25;4384140;32;20343;-82
2022/05/18 09:45:11;;;;;;;;;;;;;;;25.16;25.56;100924.09;4384001;32;19990;-82
2022/05/18 09:47:41;;;;;;;;;;;;;;;25.23;23.83;100928.31;4378783;32;20004;-82
2022/05/18 09:50:09;;;;;;;;;;;;;;;25.14;23.67;100931.19;4399488;32;19986;-81
2022/05/18 09:52:37;;;;;;;;;;;;;;;25.50;25.54;100931.97;4411794;32;19992;-83
2022/05/18 09:55:05;;;;;;;;;;;;;;;25.52;26.84;100922.19;4404288;32;19994;-83
2022/05/18 09:57:33;;;;;;;;;;;;;;;25.84;23.29;100918.63;4400575;32;19994;-82
2022/05/18 10:00:02;;;;;;;;;;;;;;;26.13;24.17;100931.03;4401437;32;19996;-82
2022/05/18 10:08:13;;;;;;;;;;;;;;;26.08;22.74;100937.41;4395959;32;20020;-82
2022/05/18 10:10:40;;;;;;;;;;;;;;;26.44;21.43;100938.87;4406488;32;20010;-82
2022/05/18 10:13:14;;;;;;;;;;;;;;;25.65;23.38;100933.31;4400464;32;20009;-83
2022/05/18 10:16:06;;;;;;;;;;;;;;;25.75;25.16;100940.12;4398775;32;20374;-82
2022/05/18 10:18:50;;;;;;;;;;;;;;;26.43;23.87;100939.81;4398182;32;19986;-81
2022/05/18 10:21:20;;;;;;;;;;;;;;;25.96;21.83;100928.87;4398684;32;20032;-83
2022/05/18 10:23:56;;;;;;;;;;;;;;;26.18;21.95;100933.53;4395711;32;20033;-81
2022/05/18 10:26:27;;;;;;;;;;;;;;;25.82;21.54;100928.44;4400000;32;20001;-83
2022/05/18 10:28:56;;;;;;;;;;;;;;;25.82;21.70;100924.91;4400642;32;20023;-83
2022/05/18 10:31:26;;;;;;;;;;;;;;;26.07;22.36;100925.03;4398125;32;19978;-83
2022/05/18 10:33:57;;;;;;;;;;;;;;;26.30;21.77;100929.63;4396757;32;20727;-83
2022/05/18 10:36:25;;;;;;;;;;;;;;;26.57;21.80;100920.78;4409996;32;19987;-85
2022/05/18 10:38:56;;;;;;;;;;;;;;;26.60;23.15;100914.53;4394534;32;20103;-83
2022/05/18 10:41:28;;;;;;;;;;;;;;;26.66;19.43;100914.31;4398189;32;20001;-84
2022/05/18 10:44:00;;;;;;;;;;;;;;;26.65;20.06;100912.59;4411495;32;19978;-84
2022/05/18 10:46:29;;;;;;;;;;;;;;;26.69;19.31;100918.66;4401169;32;21629;-84
2022/05/18 10:48:58;;;;;;;;;;;;;;;26.92;19.17;100920.53;4409669;32;20010;-83
2022/05/18 10:51:32;;;;;;;;;;;;;;;26.68;18.07;100917.81;4410691;32;20053;-84
2022/05/18 10:54:08;;;;;;;;;;;;;;;26.79;17.77;100915.63;4406335;32;19974;-83
2022/05/18 10:56:35;;;;;;;;;;;;;;;26.68;18.70;100917.81;4399347;32;20300;-82
2022/05/18 10:59:11;;;;;;;;;;;;;;;26.59;17.07;100907.47;4399156;32;20363;-83
2022/05/18 11:02:13;;;;;;;;;;;;;;;27.02;18.26;100921.94;4398912;32;20013;-83
2022/05/18 11:04:44;;;;;;;;;;;;;;;27.21;17.26;100908.91;4366317;32;20324;-84
2022/05/18 11:07:10;;;;;;;;;;;;;;;25.92;18.01;100906.00;4394627;32;20048;-83
2022/05/18 11:09:43;;;;;;;;;;;;;;;26.80;17.89;100917.38;4399750;32;20004;-82
2022/05/18 11:12:16;;;;;;;;;;;;;;;26.60;18.16;100919.81;4399364;32;20418;-83
2022/05/18 11:14:58;;;;;;;;;;;;;;;26.70;16.93;100915.94;4400311;32;19975;-83
2022/05/18 11:17:35;;;;;;;;;;;;;;;26.20;17.62;100915.78;4399225;32;20042;-83
2022/05/18 11:20:05;;;;;;;;;;;;;;;26.48;17.47;100909.56;4399367;32;20324;-84
2022/05/18 11:22:48;;;;;;;;;;;;;;;26.85;18.53;100915.44;4383733;32;20005;-84
2022/05/18 11:25:27;;;;;;;;;;;;;;;26.37;19.06;100912.59;4383235;32;19974;-83
2022/05/18 11:28:19;;;;;;;;;;;;;;;26.78;18.64;100900.63;4383580;32;20324;-83
2022/05/18 11:31:03;;;;;;;;;;;;;;;26.88;19.65;100902.03;4366894;32;20086;-83
2022/05/18 11:33:39;;;;;;;;;;;;;;;26.27;17.20;100901.41;4376872;32;19991;-84
2022/05/18 11:36:06;;;;;;;;;;;;;;;26.65;16.96;100897.50;4372644;32;20008;-84
2022/05/18 11:38:34;;;;;;;;;;;;;;;26.63;21.52;100893.16;4383865;32;20554;-83
2022/05/18 11:41:13;;;;;;;;;;;;;;;26.57;18.84;100898.69;4384167;32;19986;-83
2022/05/18 11:43:43;;;;;;;;;;;;;;;27.06;17.78;100892.56;4394526;32;19986;-84
2022/05/18 11:46:25;;;;;;;;;;;;;;;26.68;17.08;100893.91;4382407;32;19982;-84
2022/05/18 11:49:01;;;;;;;;;;;;;;;26.66;18.55;100893.06;4384538;32;19991;-83
2022/05/18 11:51:45;;;;;;;;;;;;;;;26.80;18.69;100885.50;4382876;32;19998;-85
2022/05/18 11:54:18;;;;;;;;;;;;;;;26.92;19.28;100891.31;4383034;32;19994;-84
2022/05/18 11:56:45;;;;;;;;;;;;;;;27.11;17.17;100900.38;4383645;32;19998;-83
2022/05/18 11:59:43;;;;;;;;;;;;;;;27.23;17.53;100894.66;4382821;32;20025;-84
2022/05/18 12:02:14;;;;;;;;;;;;;;;27.15;16.70;100906.47;4382635;32;19995;-83
2022/05/18 12:04:52;;;;;;;;;;;;;;;27.13;16.04;100898.53;4381885;32;20419;-83
2022/05/18 12:07:22;;;;;;;;;;;;;;;27.25;15.85;100892.81;4393278;32;20013;-83
2022/05/18 12:10:04;;;;;;;;;;;;;;;26.50;15.03;100891.84;4383798;32;19984;-82
2022/05/18 12:12:31;;;;;;;;;;;;;;;27.00;15.76;100891.91;4396331;32;20392;-82
2022/05/18 12:15:17;;;;;;;;;;;;;;;27.28;14.08;100892.69;4384702;32;20390;-85
2022/05/18 12:17:48;;;;;;;;;;;;;;;27.31;15.58;100892.59;4385845;32;19974;-84
2022/05/18 12:20:20;;;;;;;;;;;;;;;26.84;14.94;100897.75;4385152;32;20016;-83
2022/05/18 12:22:58;;;;;;;;;;;;;;;26.97;15.96;100897.34;4390287;32;20070;-83
2022/05/18 12:25:26;;;;;;;;;;;;;;;27.30;15.58;100897.94;4397397;32;19982;-83
2022/05/18 12:27:54;;;;;;;;;;;;;;;26.43;18.81;100894.66;4393245;32;20026;-83
2022/05/18 12:30:21;;;;;;;;;;;;;;;26.59;18.93;100886.22;4402388;32;20009;-82
2022/05/18 12:32:50;;;;;;;;;;;;;;;27.11;17.69;100892.38;4401182;32;20749;-85
2022/05/18 12:35:31;;;;;;;;;;;;;;;27.28;16.55;100900.69;4402397;32;20018;-82
2022/05/18 12:37:58;;;;;;;;;;;;;;;27.08;15.85;100895.16;4400917;32;19987;-84
2022/05/18 12:40:30;;;;;;;;;;;;;;;27.16;17.34;100898.47;4384249;32;19979;-82
2022/05/18 12:43:03;;;;;;;;;;;;;;;27.28;16.52;100897.13;4384071;32;20061;-82
2022/05/18 12:45:32;;;;;;;;;;;;;;;27.40;15.93;100901.13;4395004;32;19975;-82
2022/05/18 12:48:22;;;;;;;;;;;;;;;27.41;16.25;100897.53;4384155;32;19978;-84
2022/05/18 12:50:49;;;;;;;;;;;;;;;27.34;16.28;100900.41;4378319;32;19974;-83
2022/05/18 12:53:21;;;;;;;;;;;;;;;27.12;14.72;100896.78;4385550;32;20018;-83
2022/05/18 12:55:55;;;;;;;;;;;;;;;27.33;15.84;100896.03;4367859;32;19983;-82
2022/05/18 12:58:24;;;;;;;;;;;;;;;27.49;14.68;100895.47;4373114;32;20029;-82
2022/05/18 13:01:01;;;;;;;;;;;;;;;26.87;14.70;100900.31;4368894;32;20037;-81
2022/05/18 13:03:37;;;;;;;;;;;;;;;27.12;14.82;100888.78;4366303;32;20048;-82
2022/05/18 13:06:09;;;;;;;;;;;;;;;26.82;16.74;100899.59;4367539;32;19987;-82
2022/05/18 13:08:37;;;;;;;;;;;;;;;27.03;15.31;100886.50;4368655;32;20350;-82